sensor_id;sensor_type;location;lat;lon;timestamp;pressure;altitude;pressure_sealevel;temperature;humidity
29121;BME280;16191;49.548;8.658;2023-03-01T00:00:04;101421.91;;;0.21;88.35
29121;BME280;16191;49.548;8.658;2023-03-01T00:02:36;101419.22;;;0.15;89.08
29121;BME280;16191;49.548;8.658;2023-03-01T00:05:03;101413.31;;;0.19;89.58
29121;BME280;16191;49.548;8.658;2023-03-01T00:07:30;101419.25;;;0.17;89.68
29121;BME280;16191;49.548;8.658;2023-03-01T00:09:57;101419.22;;;0.15;89.76
29121;BME280;16191;49.548;8.658;2023-03-01T00:12:23;101422.53;;;0.10;89.80
29121;BME280;16191;49.548;8.658;2023-03-01T00:14:50;101417.50;;;0.14;89.63
29121;BME280;16191;49.548;8.658;2023-03-01T00:17:16;101423.34;;;0.09;89.93
29121;BME280;16191;49.548;8.658;2023-03-01T00:19:43;101412.91;;;0.01;90.50
29121;BME280;16191;49.548;8.658;2023-03-01T00:22:09;101411.06;;;-0.08;91.56
29121;BME280;16191;49.548;8.658;2023-03-01T00:24:36;101409.44;;;-0.03;91.72
29121;BME280;16191;49.548;8.658;2023-03-01T00:27:02;101414.56;;;-0.04;91.88
29121;BME280;16191;49.548;8.658;2023-03-01T00:29:29;101410.28;;;-0.04;91.74
29121;BME280;16191;49.548;8.658;2023-03-01T00:31:55;101411.06;;;-0.08;92.22
29121;BME280;16191;49.548;8.658;2023-03-01T00:34:22;101408.38;;;-0.12;92.97
29121;BME280;16191;49.548;8.658;2023-03-01T00:36:49;101416.03;;;-0.14;93.47
29121;BME280;16191;49.548;8.658;2023-03-01T00:39:15;101425.56;;;-0.08;93.28
29121;BME280;16191;49.548;8.658;2023-03-01T00:41:42;101418.66;;;-0.12;93.03
29121;BME280;16191;49.548;8.658;2023-03-01T00:44:09;101429.81;;;-0.10;93.59
29121;BME280;16191;49.548;8.658;2023-03-01T00:46:36;101426.31;;;-0.14;93.91
29121;BME280;16191;49.548;8.658;2023-03-01T00:49:03;101433.88;;;-0.20;95.55
29121;BME280;16191;49.548;8.658;2023-03-01T00:51:31;101432.13;;;-0.22;95.73
29121;BME280;16191;49.548;8.658;2023-03-01T00:54:01;101429.63;;;-0.18;95.53
29121;BME280;16191;49.548;8.658;2023-03-01T00:56:28;101413.47;;;-0.14;95.30
29121;BME280;16191;49.548;8.658;2023-03-01T00:58:55;101415.03;;;-0.22;96.18
29121;BME280;16191;49.548;8.658;2023-03-01T01:01:25;101417.56;;;-0.23;97.11
29121;BME280;16191;49.548;8.658;2023-03-01T01:04:04;101402.34;;;-0.14;96.71
29121;BME280;16191;49.548;8.658;2023-03-01T01:06:37;101398.06;;;-0.15;96.87
29121;BME280;16191;49.548;8.658;2023-03-01T01:09:06;101394.50;;;-0.22;97.25
29121;BME280;16191;49.548;8.658;2023-03-01T01:11:53;101390.31;;;-0.17;97.70
29121;BME280;16191;49.548;8.658;2023-03-01T01:14:20;101389.38;;;-0.20;97.82
29121;BME280;16191;49.548;8.658;2023-03-01T01:16:47;101390.34;;;-0.15;98.26
29121;BME280;16191;49.548;8.658;2023-03-01T01:19:16;101386.13;;;-0.13;97.84
29121;BME280;16191;49.548;8.658;2023-03-01T01:21:43;101384.44;;;-0.13;97.17
29121;BME280;16191;49.548;8.658;2023-03-01T01:24:09;101383.50;;;-0.16;97.45
29121;BME280;16191;49.548;8.658;2023-03-01T01:26:36;101381.94;;;-0.10;96.16
29121;BME280;16191;49.548;8.658;2023-03-01T01:29:04;101384.50;;;-0.10;95.73
29121;BME280;16191;49.548;8.658;2023-03-01T01:31:31;101378.63;;;-0.04;95.68
29121;BME280;16191;49.548;8.658;2023-03-01T01:34:00;101372.66;;;-0.03;95.61
29121;BME280;16191;49.548;8.658;2023-03-01T01:36:28;101364.94;;;-0.05;95.07
29121;BME280;16191;49.548;8.658;2023-03-01T01:38:55;101357.34;;;0.00;94.54
29121;BME280;16191;49.548;8.658;2023-03-01T01:41:23;101352.16;;;-0.02;94.48
29121;BME280;16191;49.548;8.658;2023-03-01T01:49:52;101340.31;;;0.05;93.07
29121;BME280;16191;49.548;8.658;2023-03-01T01:52:29;101345.47;;;0.07;93.20
29121;BME280;16191;49.548;8.658;2023-03-01T01:55:03;101345.47;;;0.07;92.84
29121;BME280;16191;49.548;8.658;2023-03-01T01:57:35;101348.00;;;0.05;92.84
29121;BME280;16191;49.548;8.658;2023-03-01T02:00:07;101351.38;;;0.03;92.82
29121;BME280;16191;49.548;8.658;2023-03-01T02:02:39;101345.50;;;0.08;92.29
29121;BME280;16191;49.548;8.658;2023-03-01T02:05:24;101351.53;;;0.10;93.07
29121;BME280;16191;49.548;8.658;2023-03-01T02:07:52;101348.19;;;0.14;91.71
29121;BME280;16191;49.548;8.658;2023-03-01T02:10:22;101338.81;;;0.16;91.66
29121;BME280;16191;49.548;8.658;2023-03-01T02:12:51;101337.91;;;0.13;92.34
29121;BME280;16191;49.548;8.658;2023-03-01T02:15:18;101337.03;;;0.12;91.56
29121;BME280;16191;49.548;8.658;2023-03-01T02:17:45;101331.94;;;0.14;91.40
29121;BME280;16191;49.548;8.658;2023-03-01T02:20:56;101329.44;;;0.17;91.12
29121;BME280;16191;49.548;8.658;2023-03-01T02:23:20;101319.00;;;0.09;91.69
29121;BME280;16191;49.548;8.658;2023-03-01T02:25:55;101327.69;;;0.16;92.06
29121;BME280;16191;49.548;8.658;2023-03-01T02:28:32;101324.34;;;0.20;91.33
29121;BME280;16191;49.548;8.658;2023-03-01T02:30:59;101316.53;;;0.14;90.99
29121;BME280;16191;49.548;8.658;2023-03-01T02:33:45;101319.13;;;0.15;90.89
29121;BME280;16191;49.548;8.658;2023-03-01T02:36:36;101317.19;;;0.04;92.52
29121;BME280;16191;49.548;8.658;2023-03-01T02:39:29;101313.88;;;0.09;92.77
29121;BME280;16191;49.548;8.658;2023-03-01T02:42:24;101308.69;;;0.06;93.38
29121;BME280;16191;49.548;8.658;2023-03-01T02:45:12;101314.81;;;0.13;92.99
29121;BME280;16191;49.548;8.658;2023-03-01T02:47:59;101305.25;;;0.06;92.87
29121;BME280;16191;49.548;8.658;2023-03-01T02:53:41;101302.53;;;-0.04;93.67
29121;BME280;16191;49.548;8.658;2023-03-01T02:56:13;101306.03;;;0.03;93.08
29121;BME280;16191;49.548;8.658;2023-03-01T02:58:41;101295.84;;;0.06;92.78
29121;BME280;16191;49.548;8.658;2023-03-01T03:01:12;101294.16;;;0.07;93.13
29121;BME280;16191;49.548;8.658;2023-03-01T03:03:42;101295.03;;;0.09;92.14
29121;BME280;16191;49.548;8.658;2023-03-01T03:06:09;101290.66;;;0.03;92.63
29121;BME280;16191;49.548;8.658;2023-03-01T03:08:36;101286.47;;;0.08;93.43
29121;BME280;16191;49.548;8.658;2023-03-01T03:11:03;101276.94;;;0.01;93.42
29121;BME280;16191;49.548;8.658;2023-03-01T03:13:30;101272.81;;;0.09;92.34
29121;BME280;16191;49.548;8.658;2023-03-01T03:15:56;101276.25;;;0.10;92.46
29121;BME280;16191;49.548;8.658;2023-03-01T03:18:24;101277.94;;;0.09;93.10
29121;BME280;16191;49.548;8.658;2023-03-01T03:20:53;101279.50;;;0.01;94.40
29121;BME280;16191;49.548;8.658;2023-03-01T03:23:21;101274.38;;;-0.01;95.21
29121;BME280;16191;49.548;8.658;2023-03-01T03:25:49;101278.56;;;-0.04;95.23
29121;BME280;16191;49.548;8.658;2023-03-01T03:28:17;101267.41;;;-0.06;94.57
29121;BME280;16191;49.548;8.658;2023-03-01T03:30:44;101270.94;;;-0.01;93.51
29121;BME280;16191;49.548;8.658;2023-03-01T03:33:11;101268.47;;;0.07;93.00
29121;BME280;16191;49.548;8.658;2023-03-01T03:35:47;101262.47;;;0.05;91.90
29121;BME280;16191;49.548;8.658;2023-03-01T03:38:16;101265.91;;;0.07;92.65
29121;BME280;16191;49.548;8.658;2023-03-01T03:40:46;101263.06;;;-0.10;93.86
29121;BME280;16191;49.548;8.658;2023-03-01T03:43:18;101262.31;;;-0.05;94.49
29121;BME280;16191;49.548;8.658;2023-03-01T03:45:46;101258.03;;;-0.04;94.33
29121;BME280;16191;49.548;8.658;2023-03-01T03:48:14;101258.94;;;-0.02;93.83
29121;BME280;16191;49.548;8.658;2023-03-01T03:50:41;101258.91;;;-0.04;94.56
29121;BME280;16191;49.548;8.658;2023-03-01T03:53:11;101256.13;;;-0.14;94.87
29121;BME280;16191;49.548;8.658;2023-03-01T03:55:38;101259.56;;;-0.14;94.97
29121;BME280;16191;49.548;8.658;2023-03-01T03:58:07;101254.50;;;-0.11;94.92
29121;BME280;16191;49.548;8.658;2023-03-01T04:00:40;101250.91;;;-0.19;96.26
29121;BME280;16191;49.548;8.658;2023-03-01T04:03:08;101253.44;;;-0.20;96.31
29121;BME280;16191;49.548;8.658;2023-03-01T04:05:36;101246.59;;;-0.23;96.95
29121;BME280;16191;49.548;8.658;2023-03-01T04:08:03;101246.16;;;-0.43;99.11
29121;BME280;16191;49.548;8.658;2023-03-01T04:10:39;101250.75;;;-0.28;98.61
29121;BME280;16191;49.548;8.658;2023-03-01T04:13:10;101246.63;;;-0.18;96.96
29121;BME280;16191;49.548;8.658;2023-03-01T04:15:37;101247.56;;;-0.15;96.21
29121;BME280;16191;49.548;8.658;2023-03-01T04:18:04;101248.09;;;-0.32;96.87
29121;BME280;16191;49.548;8.658;2023-03-01T04:20:33;101248.31;;;-0.20;97.28
29121;BME280;16191;49.548;8.658;2023-03-01T04:23:06;101250.91;;;-0.19;96.61
29121;BME280;16191;49.548;8.658;2023-03-01T04:25:47;101249.09;;;-0.26;97.54
29121;BME280;16191;49.548;8.658;2023-03-01T04:28:25;101250.75;;;-0.28;98.69
29121;BME280;16191;49.548;8.658;2023-03-01T04:30:54;101253.41;;;-0.23;97.49
29121;BME280;16191;49.548;8.658;2023-03-01T04:33:22;101252.53;;;-0.24;98.47
29121;BME280;16191;49.548;8.658;2023-03-01T04:35:49;101253.25;;;-0.31;98.04
29121;BME280;16191;49.548;8.658;2023-03-01T04:38:17;101252.09;;;-0.47;99.40
29121;BME280;16191;49.548;8.658;2023-03-01T04:40:44;101259.81;;;-0.45;100.00
29121;BME280;16191;49.548;8.658;2023-03-01T04:43:11;101263.19;;;-0.48;100.00
29121;BME280;16191;49.548;8.658;2023-03-01T04:45:39;101259.00;;;-0.43;100.00
29121;BME280;16191;49.548;8.658;2023-03-01T04:48:07;101253.84;;;-0.43;100.00
29121;BME280;16191;49.548;8.658;2023-03-01T04:50:34;101260.66;;;-0.46;100.00
29121;BME280;16191;49.548;8.658;2023-03-01T04:53:01;101263.41;;;-0.36;99.44
29121;BME280;16191;49.548;8.658;2023-03-01T04:55:28;101264.19;;;-0.40;99.33
29121;BME280;16191;49.548;8.658;2023-03-01T04:57:55;101262.50;;;-0.38;99.55
29121;BME280;16191;49.548;8.658;2023-03-01T05:00:22;101259.00;;;-0.44;99.27
29121;BME280;16191;49.548;8.658;2023-03-01T05:02:54;101255.72;;;-0.36;99.25
29121;BME280;16191;49.548;8.658;2023-03-01T05:07:56;101249.84;;;-0.30;98.51
29121;BME280;16191;49.548;8.658;2023-03-01T05:10:24;101246.22;;;-0.40;98.80
29121;BME280;16191;49.548;8.658;2023-03-01T05:12:52;101260.75;;;-0.40;100.00
29121;BME280;16191;49.548;8.658;2023-03-01T05:15:19;101246.13;;;-0.46;100.00
29121;BME280;16191;49.548;8.658;2023-03-01T05:17:48;101248.69;;;-0.46;100.00
29121;BME280;16191;49.548;8.658;2023-03-01T05:20:16;101237.69;;;-0.39;99.98
29121;BME280;16191;49.548;8.658;2023-03-01T05:22:42;101245.50;;;-0.34;99.82
29121;BME280;16191;49.548;8.658;2023-03-01T05:25:09;101245.38;;;-0.40;99.88
29121;BME280;16191;49.548;8.658;2023-03-01T05:27:36;101241.16;;;-0.37;100.00
29121;BME280;16191;49.548;8.658;2023-03-01T05:30:03;101237.81;;;-0.34;99.26
29121;BME280;16191;49.548;8.658;2023-03-01T05:32:44;101239.69;;;-0.25;98.80
29121;BME280;16191;49.548;8.658;2023-03-01T05:35:12;101234.63;;;-0.21;98.52
29121;BME280;16191;49.548;8.658;2023-03-01T05:37:44;101243.16;;;-0.23;98.31
29121;BME280;16191;49.548;8.658;2023-03-01T05:40:12;101239.81;;;-0.18;97.89
29121;BME280;16191;49.548;8.658;2023-03-01T05:43:08;101244.00;;;-0.23;97.32
29121;BME280;16191;49.548;8.658;2023-03-01T05:45:36;101239.03;;;-0.14;97.98
29121;BME280;16191;49.548;8.658;2023-03-01T05:48:04;101243.22;;;-0.19;98.05
29121;BME280;16191;49.548;8.658;2023-03-01T05:50:34;101245.88;;;-0.14;98.82
29121;BME280;16191;49.548;8.658;2023-03-01T05:53:03;101247.53;;;-0.16;96.83
29121;BME280;16191;49.548;8.658;2023-03-01T05:55:35;101247.47;;;-0.19;97.20
29121;BME280;16191;49.548;8.658;2023-03-01T05:58:04;101249.09;;;-0.26;98.31
29121;BME280;16191;49.548;8.658;2023-03-01T06:00:32;101241.53;;;-0.17;97.43
29121;BME280;16191;49.548;8.658;2023-03-01T06:02:59;101244.94;;;-0.18;96.86
29121;BME280;16191;49.548;8.658;2023-03-01T06:05:26;101239.00;;;-0.15;96.18
29121;BME280;16191;49.548;8.658;2023-03-01T06:07:53;101240.81;;;-0.10;96.67
29121;BME280;16191;49.548;8.658;2023-03-01T06:10:22;101238.13;;;-0.16;97.28
29121;BME280;16191;49.548;8.658;2023-03-01T06:12:48;101242.56;;;-0.09;96.83
29121;BME280;16191;49.548;8.658;2023-03-01T06:15:16;101243.56;;;-0.01;95.31
29121;BME280;16191;49.548;8.658;2023-03-01T06:17:44;101237.44;;;-0.09;94.95
29121;BME280;16191;49.548;8.658;2023-03-01T06:20:14;101227.06;;;-0.13;94.54
29121;BME280;16191;49.548;8.658;2023-03-01T06:22:42;101241.69;;;-0.09;95.75
29121;BME280;16191;49.548;8.658;2023-03-01T06:25:10;101246.03;;;-0.07;94.11
29121;BME280;16191;49.548;8.658;2023-03-01T06:27:39;101239.22;;;-0.05;93.43
29121;BME280;16191;49.548;8.658;2023-03-01T06:30:06;101231.50;;;-0.06;93.29
29121;BME280;16191;49.548;8.658;2023-03-01T06:32:34;101240.13;;;0.00;93.85
29121;BME280;16191;49.548;8.658;2023-03-01T06:35:00;101234.25;;;0.06;93.60
29121;BME280;16191;49.548;8.658;2023-03-01T06:37:27;101239.38;;;0.05;92.59
29121;BME280;16191;49.548;8.658;2023-03-01T06:39:53;101235.28;;;0.14;91.92
29121;BME280;16191;49.548;8.658;2023-03-01T06:42:20;101235.22;;;0.11;91.53
29121;BME280;16191;49.548;8.658;2023-03-01T06:44:46;101233.63;;;0.18;91.83
29121;BME280;16191;49.548;8.658;2023-03-01T06:47:13;101229.41;;;0.21;90.66
29121;BME280;16191;49.548;8.658;2023-03-01T06:49:40;101225.25;;;0.29;89.76
29121;BME280;16191;49.548;8.658;2023-03-01T06:52:07;101226.97;;;0.30;90.38
29121;BME280;16191;49.548;8.658;2023-03-01T06:54:33;101226.88;;;0.24;89.80
29121;BME280;16191;49.548;8.658;2023-03-01T06:57:00;101227.81;;;0.29;89.66
29121;BME280;16191;49.548;8.658;2023-03-01T06:59:26;101229.66;;;0.37;88.41
29121;BME280;16191;49.548;8.658;2023-03-01T07:01:53;101229.78;;;0.46;87.96
29121;BME280;16191;49.548;8.658;2023-03-01T07:04:19;101226.50;;;0.54;87.19
29121;BME280;16191;49.548;8.658;2023-03-01T07:06:46;101224.63;;;0.43;87.26
29121;BME280;16191;49.548;8.658;2023-03-01T07:09:18;101223.97;;;0.56;86.68
29121;BME280;16191;49.548;8.658;2023-03-01T07:11:46;101227.41;;;0.56;85.96
29121;BME280;16191;49.548;8.658;2023-03-01T07:14:13;101228.44;;;0.69;85.04
29121;BME280;16191;49.548;8.658;2023-03-01T07:16:39;101227.66;;;0.73;84.78
29121;BME280;16191;49.548;8.658;2023-03-01T07:19:06;101221.03;;;0.90;83.74
29121;BME280;16191;49.548;8.658;2023-03-01T07:21:33;101207.13;;;0.76;84.37
29121;BME280;16191;49.548;8.658;2023-03-01T07:23:59;101215.00;;;0.88;83.43
29121;BME280;16191;49.548;8.658;2023-03-01T07:26:26;101213.44;;;0.98;80.68
29121;BME280;16191;49.548;8.658;2023-03-01T07:28:52;101210.19;;;1.11;80.28
29121;BME280;16191;49.548;8.658;2023-03-01T07:31:19;101211.88;;;1.08;80.08
29121;BME280;16191;49.548;8.658;2023-03-01T07:33:45;101196.66;;;1.24;79.41
29121;BME280;16191;49.548;8.658;2023-03-01T07:36:12;101198.44;;;1.28;78.39
29121;BME280;16191;49.548;8.658;2023-03-01T07:38:38;101202.69;;;1.26;78.12
29121;BME280;16191;49.548;8.658;2023-03-01T07:41:05;101199.44;;;1.43;77.29
29121;BME280;16191;49.548;8.658;2023-03-01T07:43:32;101190.03;;;1.45;76.63
29121;BME280;16191;49.548;8.658;2023-03-01T07:46:03;101197.72;;;1.43;78.09
29121;BME280;16191;49.548;8.658;2023-03-01T07:48:31;101192.84;;;1.67;75.66
29121;BME280;16191;49.548;8.658;2023-03-01T07:51:03;101201.47;;;1.71;74.71
29121;BME280;16191;49.548;8.658;2023-03-01T07:53:30;101199.97;;;1.91;74.09
29121;BME280;16191;49.548;8.658;2023-03-01T07:56:05;101194.00;;;1.98;72.97
29121;BME280;16191;49.548;8.658;2023-03-01T07:58:37;101187.28;;;2.14;72.44
29121;BME280;16191;49.548;8.658;2023-03-01T08:01:05;101185.59;;;2.16;72.82
29121;BME280;16191;49.548;8.658;2023-03-01T08:03:33;101182.31;;;2.40;71.77
29121;BME280;16191;49.548;8.658;2023-03-01T08:06:01;101186.69;;;2.47;70.99
29121;BME280;16191;49.548;8.658;2023-03-01T08:08:28;101184.06;;;2.42;70.07
29121;BME280;16191;49.548;8.658;2023-03-01T08:10:59;101180.63;;;2.42;70.20
29121;BME280;16191;49.548;8.658;2023-03-01T08:13:26;101171.28;;;2.53;69.03
29121;BME280;16191;49.548;8.658;2023-03-01T08:15:53;101166.25;;;2.76;68.89
29121;BME280;16191;49.548;8.658;2023-03-01T08:18:20;101168.78;;;2.70;68.64
29121;BME280;16191;49.548;8.658;2023-03-01T08:20:47;101158.56;;;2.81;67.44
29121;BME280;16191;49.548;8.658;2023-03-01T08:23:14;101155.16;;;2.92;67.86
29121;BME280;16191;49.548;8.658;2023-03-01T08:25:41;101156.09;;;3.00;66.75
29121;BME280;16191;49.548;8.658;2023-03-01T08:28:08;101163.00;;;3.14;65.63
29121;BME280;16191;49.548;8.658;2023-03-01T08:30:34;101163.94;;;3.34;64.93
29121;BME280;16191;49.548;8.658;2023-03-01T08:33:01;101166.56;;;3.46;64.09
29121;BME280;16191;49.548;8.658;2023-03-01T08:35:27;101163.06;;;3.23;63.34
29121;BME280;16191;49.548;8.658;2023-03-01T08:37:54;101170.03;;;3.63;63.21
29121;BME280;16191;49.548;8.658;2023-03-01T08:40:21;101160.53;;;3.50;62.92
29121;BME280;16191;49.548;8.658;2023-03-01T08:42:47;101157.16;;;3.74;61.80
29121;BME280;16191;49.548;8.658;2023-03-01T08:45:14;101156.31;;;3.93;62.12
29121;BME280;16191;49.548;8.658;2023-03-01T08:47:44;101159.78;;;4.09;61.94
29121;BME280;16191;49.548;8.658;2023-03-01T08:50:11;101151.13;;;4.14;60.44
29121;BME280;16191;49.548;8.658;2023-03-01T08:52:38;101148.56;;;4.30;60.62
29121;BME280;16191;49.548;8.658;2023-03-01T08:55:05;101136.50;;;4.32;59.81
29121;BME280;16191;49.548;8.658;2023-03-01T08:57:32;101139.94;;;4.44;60.00
29121;BME280;16191;49.548;8.658;2023-03-01T08:59:58;101134.72;;;4.66;59.38
29121;BME280;16191;49.548;8.658;2023-03-01T09:02:25;101132.06;;;4.84;58.43
29121;BME280;16191;49.548;8.658;2023-03-01T09:04:51;101126.91;;;4.84;58.00
29121;BME280;16191;49.548;8.658;2023-03-01T09:07:18;101129.50;;;4.76;57.98
29121;BME280;16191;49.548;8.658;2023-03-01T09:09:44;101124.22;;;5.13;57.71
29121;BME280;16191;49.548;8.658;2023-03-01T09:12:11;101118.16;;;5.15;57.06
29121;BME280;16191;49.548;8.658;2023-03-01T09:14:38;101125.09;;;5.06;56.87
29121;BME280;16191;49.548;8.658;2023-03-01T09:17:05;101120.66;;;5.29;55.69
29121;BME280;16191;49.548;8.658;2023-03-01T09:19:31;101119.78;;;5.36;54.92
29121;BME280;16191;49.548;8.658;2023-03-01T09:21:58;101107.59;;;5.50;55.79
29121;BME280;16191;49.548;8.658;2023-03-01T09:24:24;101118.84;;;5.43;55.06
29121;BME280;16191;49.548;8.658;2023-03-01T09:26:55;101110.28;;;5.40;55.59
29121;BME280;16191;49.548;8.658;2023-03-01T09:29:23;101107.44;;;5.75;54.59
29121;BME280;16191;49.548;8.658;2023-03-01T09:31:49;101104.75;;;5.85;54.09
29121;BME280;16191;49.548;8.658;2023-03-01T09:34:16;101102.09;;;5.98;54.12
29121;BME280;16191;49.548;8.658;2023-03-01T09:36:50;101095.88;;;6.17;53.04
29121;BME280;16191;49.548;8.658;2023-03-01T09:39:17;101101.31;;;5.90;53.44
29121;BME280;16191;49.548;8.658;2023-03-01T09:41:53;101095.34;;;5.74;52.95
29121;BME280;16191;49.548;8.658;2023-03-01T09:47:24;101093.97;;;6.36;52.54
29121;BME280;16191;49.548;8.658;2023-03-01T09:50:12;101097.31;;;6.48;51.69
29121;BME280;16191;49.548;8.658;2023-03-01T09:55:31;101091.56;;;6.96;50.91
29121;BME280;16191;49.548;8.658;2023-03-01T10:01:19;101096.81;;;6.91;50.10
29121;BME280;16191;49.548;8.658;2023-03-01T10:06:40;101090.94;;;7.41;49.21
29121;BME280;16191;49.548;8.658;2023-03-01T10:09:13;101080.22;;;7.04;49.44
29121;BME280;16191;49.548;8.658;2023-03-01T10:11:45;101087.94;;;7.09;49.67
29121;BME280;16191;49.548;8.658;2023-03-01T10:14:36;101079.72;;;7.38;48.86
29121;BME280;16191;49.548;8.658;2023-03-01T10:22:48;101088.72;;;7.75;48.12
29121;BME280;16191;49.548;8.658;2023-03-01T10:28:17;101066.63;;;8.01;47.36
29121;BME280;16191;49.548;8.658;2023-03-01T10:30:46;101069.31;;;7.96;47.88
29121;BME280;16191;49.548;8.658;2023-03-01T10:33:23;101058.63;;;8.11;47.15
29121;BME280;16191;49.548;8.658;2023-03-01T10:35:50;101055.88;;;8.20;47.31
29121;BME280;16191;49.548;8.658;2023-03-01T10:38:18;101052.97;;;8.39;46.50
29121;BME280;16191;49.548;8.658;2023-03-01T10:41:04;101041.44;;;8.52;46.78
29121;BME280;16191;49.548;8.658;2023-03-01T10:44:01;101033.66;;;8.50;46.21
29121;BME280;16191;49.548;8.658;2023-03-01T10:46:31;101030.38;;;8.84;46.99
29121;BME280;16191;49.548;8.658;2023-03-01T10:49:14;101024.81;;;8.59;46.93
29121;BME280;16191;49.548;8.658;2023-03-01T10:51:43;101028.44;;;8.92;45.61
29121;BME280;16191;49.548;8.658;2023-03-01T10:54:22;101022.91;;;8.67;45.64
29121;BME280;16191;49.548;8.658;2023-03-01T10:56:51;101017.91;;;8.98;45.94
29121;BME280;16191;49.548;8.658;2023-03-01T10:59:37;101015.84;;;8.74;46.28
29121;BME280;16191;49.548;8.658;2023-03-01T11:02:30;101011.69;;;9.05;45.70
29121;BME280;16191;49.548;8.658;2023-03-01T11:07:23;100991.81;;;9.74;44.69
29121;BME280;16191;49.548;8.658;2023-03-01T11:09:50;100997.03;;;9.74;44.59
29121;BME280;16191;49.548;8.658;2023-03-01T11:12:17;100986.72;;;9.69;44.23
29121;BME280;16191;49.548;8.658;2023-03-01T11:14:53;100975.97;;;9.81;44.02
29121;BME280;16191;49.548;8.658;2023-03-01T11:17:24;100976.63;;;9.55;44.62
29121;BME280;16191;49.548;8.658;2023-03-01T11:20:14;100976.06;;;9.77;42.94
29121;BME280;16191;49.548;8.658;2023-03-01T11:22:47;100981.34;;;10.08;44.02
29121;BME280;16191;49.548;8.658;2023-03-01T11:25:17;100977.19;;;10.01;43.55
29121;BME280;16191;49.548;8.658;2023-03-01T11:27:46;100968.50;;;10.00;43.53
29121;BME280;16191;49.548;8.658;2023-03-01T11:30:32;100963.50;;;9.92;43.90
29121;BME280;16191;49.548;8.658;2023-03-01T11:33:42;100959.63;;;10.07;43.58
29121;BME280;16191;49.548;8.658;2023-03-01T11:38:57;100952.94;;;10.60;42.80
29121;BME280;16191;49.548;8.658;2023-03-01T11:41:31;100954.59;;;10.00;43.14
29121;BME280;16191;49.548;8.658;2023-03-01T11:44:14;100946.72;;;10.03;43.10
29121;BME280;16191;49.548;8.658;2023-03-01T11:52:43;100934.69;;;9.97;43.16
29121;BME280;16191;49.548;8.658;2023-03-01T11:55:25;100931.75;;;10.40;42.35
29121;BME280;16191;49.548;8.658;2023-03-01T11:58:06;100930.22;;;10.62;43.22
29121;BME280;16191;49.548;8.658;2023-03-01T12:00:59;100929.50;;;10.85;42.07
29121;BME280;16191;49.548;8.658;2023-03-01T12:03:36;100929.66;;;10.53;42.56
29121;BME280;16191;49.548;8.658;2023-03-01T12:09:13;100918.38;;;10.80;41.77
29121;BME280;16191;49.548;8.658;2023-03-01T12:12:06;100916.13;;;10.96;41.71
29121;BME280;16191;49.548;8.658;2023-03-01T12:14:51;100908.81;;;10.81;41.93
29121;BME280;16191;49.548;8.658;2023-03-01T12:17:43;100896.50;;;11.11;41.29
29121;BME280;16191;49.548;8.658;2023-03-01T12:23:25;100885.72;;;11.21;41.41
29121;BME280;16191;49.548;8.658;2023-03-01T12:26:34;100879.09;;;10.83;41.66
29121;BME280;16191;49.548;8.658;2023-03-01T12:34:49;100867.06;;;11.06;42.21
29121;BME280;16191;49.548;8.658;2023-03-01T12:43:08;100844.19;;;11.88;40.13
29121;BME280;16191;49.548;8.658;2023-03-01T12:45:50;100846.06;;;11.85;40.86
29121;BME280;16191;49.548;8.658;2023-03-01T12:48:25;100838.44;;;11.79;39.53
29121;BME280;16191;49.548;8.658;2023-03-01T12:51:00;100834.75;;;11.84;40.28
29121;BME280;16191;49.548;8.658;2023-03-01T12:53:31;100823.53;;;11.31;40.34
29121;BME280;16191;49.548;8.658;2023-03-01T12:56:06;100816.66;;;12.01;39.63
29121;BME280;16191;49.548;8.658;2023-03-01T12:59:07;100804.22;;;11.60;40.08
29121;BME280;16191;49.548;8.658;2023-03-01T13:04:20;100798.16;;;12.29;39.05
29121;BME280;16191;49.548;8.658;2023-03-01T13:07:19;100796.97;;;11.91;39.70
29121;BME280;16191;49.548;8.658;2023-03-01T13:15:35;100798.03;;;12.32;38.91
29121;BME280;16191;49.548;8.658;2023-03-01T13:23:36;100784.88;;;12.98;37.29
29121;BME280;16191;49.548;8.658;2023-03-01T13:26:17;100788.53;;;13.55;36.96
29121;BME280;16191;49.548;8.658;2023-03-01T13:39:01;100768.44;;;13.15;37.50
29121;BME280;16191;49.548;8.658;2023-03-01T13:44:30;100754.06;;;13.03;37.34
29121;BME280;16191;49.548;8.658;2023-03-01T13:49:57;100752.19;;;13.27;36.88
29121;BME280;16191;49.548;8.658;2023-03-01T13:52:56;100753.56;;;13.35;37.47
29121;BME280;16191;49.548;8.658;2023-03-01T13:55:32;100751.97;;;13.52;37.17
29121;BME280;16191;49.548;8.658;2023-03-01T13:58:05;100750.50;;;13.26;36.78
29121;BME280;16191;49.548;8.658;2023-03-01T14:00:41;100743.00;;;13.18;35.82
29121;BME280;16191;49.548;8.658;2023-03-01T14:03:17;100746.66;;;13.53;36.40
29121;BME280;16191;49.548;8.658;2023-03-01T14:08:39;100735.28;;;13.34;37.50
29121;BME280;16191;49.548;8.658;2023-03-01T14:14:31;100744.03;;;13.53;34.80
29121;BME280;16191;49.548;8.658;2023-03-01T14:19:43;100736.84;;;14.85;34.01
29121;BME280;16191;49.548;8.658;2023-03-01T14:22:23;100732.19;;;14.73;34.12
29121;BME280;16191;49.548;8.658;2023-03-01T14:25:05;100729.59;;;14.90;34.30
29121;BME280;16191;49.548;8.658;2023-03-01T14:27:38;100729.88;;;14.84;34.29
29121;BME280;16191;49.548;8.658;2023-03-01T14:30:27;100730.28;;;15.27;33.23
29121;BME280;16191;49.548;8.658;2023-03-01T14:32:59;100718.59;;;14.99;33.04
29121;BME280;16191;49.548;8.658;2023-03-01T14:35:29;100714.19;;;15.66;33.76
29121;BME280;16191;49.548;8.658;2023-03-01T14:37:56;100720.75;;;15.59;34.49
29121;BME280;16191;49.548;8.658;2023-03-01T14:40:35;100714.97;;;14.50;36.15
29121;BME280;16191;49.548;8.658;2023-03-01T14:43:10;100723.16;;;14.79;34.98
29121;BME280;16191;49.548;8.658;2023-03-01T14:45:37;100711.56;;;15.66;33.15
29121;BME280;16191;49.548;8.658;2023-03-01T14:48:05;100721.81;;;15.55;32.08
29121;BME280;16191;49.548;8.658;2023-03-01T14:50:41;100715.16;;;15.48;32.34
29121;BME280;16191;49.548;8.658;2023-03-01T14:53:25;100712.75;;;16.07;32.70
29121;BME280;16191;49.548;8.658;2023-03-01T14:55:55;100703.78;;;15.96;31.68